DLH9PZ EDDF-EETN
Flight info
| Callsign | DLH9PZ |
|---|---|
| Flight time | 1h 55m |
| Altitude | 35000 |
| Route | MARUN8M/25C MARUN Y150 TOLGI DCT GARLU DCT BANUB Z131 GOSOT DCT EVONA DCT ETHUV DCT ADBIB DCT SULUN |
| Aircraft | A321/M-SDE3FGHIRWY/LB1 |
Departure
| Time | 2026-05-06 09:35 |
|---|---|
| Airport | Frankfurt Main Airport (EDDF) |
Arrival
| Time | 2026-05-06 11:30 |
|---|---|
| Airport | Lennart Meri Tallinn Airport (EETN) |
| Time | Latitude | Longitude | Altitude | Speed | Heading |
|---|---|---|---|---|---|
| 2026-05-06 08:59 | 50.04705 | 8.56842 | 359 ft | 0 kts | 294° |
| 2026-05-06 09:27 | 50.04697 | 8.56869 | 362 ft | 4 kts | 293° |
| 2026-05-06 09:27 | 50.04688 | 8.56902 | 360 ft | 2 kts | 295° |
| 2026-05-06 09:27 | 50.04681 | 8.56937 | 362 ft | 4 kts | 252° |
| 2026-05-06 09:28 | 50.04696 | 8.56965 | 364 ft | 4 kts | 205° |
| 2026-05-06 09:28 | 50.04685 | 8.56956 | 362 ft | 4 kts | 204° |
| 2026-05-06 09:28 | 50.04660 | 8.56939 | 363 ft | 4 kts | 204° |
| 2026-05-06 09:28 | 50.04651 | 8.56932 | 361 ft | 0 kts | 204° |
| 2026-05-06 09:30 | 50.04648 | 8.56930 | 361 ft | 2 kts | 204° |
| 2026-05-06 09:31 | 50.04618 | 8.56915 | 358 ft | 6 kts | 195° |
| 2026-05-06 09:31 | 50.04563 | 8.56894 | 361 ft | 7 kts | 193° |
| 2026-05-06 09:31 | 50.04502 | 8.56873 | 359 ft | 11 kts | 193° |
| 2026-05-06 09:31 | 50.04422 | 8.56848 | 363 ft | 12 kts | 189° |
| 2026-05-06 09:32 | 50.04339 | 8.56825 | 360 ft | 12 kts | 192° |
| 2026-05-06 09:32 | 50.04277 | 8.56889 | 360 ft | 13 kts | 95° |
| 2026-05-06 09:32 | 50.04306 | 8.57026 | 361 ft | 14 kts | 69° |
| 2026-05-06 09:32 | 50.04339 | 8.57164 | 361 ft | 16 kts | 70° |
| 2026-05-06 09:33 | 50.04383 | 8.57349 | 362 ft | 19 kts | 70° |
| 2026-05-06 09:33 | 50.04421 | 8.57511 | 363 ft | 12 kts | 70° |
| 2026-05-06 09:33 | 50.04414 | 8.57622 | 365 ft | 9 kts | 122° |
| 2026-05-06 09:33 | 50.04370 | 8.57664 | 368 ft | 2 kts | 157° |
| 2026-05-06 09:34 | 50.04363 | 8.57669 | 366 ft | 5 kts | 158° |
| 2026-05-06 09:34 | 50.04296 | 8.57691 | 362 ft | 11 kts | 191° |
| 2026-05-06 09:34 | 50.04248 | 8.57586 | 364 ft | 18 kts | 249° |
| 2026-05-06 09:34 | 50.04126 | 8.57081 | 364 ft | 84 kts | 250° |
| 2026-05-06 09:35 | 50.03847 | 8.55913 | 355 ft | 143 kts | 249° |
| 2026-05-06 09:35 | 50.03447 | 8.54292 | 643 ft | 166 kts | 246° |
| 2026-05-06 09:35 | 50.03022 | 8.52623 | 1385 ft | 166 kts | 246° |
| 2026-05-06 09:35 | 50.02602 | 8.50937 | 1950 ft | 173 kts | 242° |
| 2026-05-06 09:36 | 50.01666 | 8.49689 | 2241 ft | 191 kts | 201° |
| 2026-05-06 09:36 | 50.00366 | 8.49070 | 2697 ft | 198 kts | 199° |
| 2026-05-06 09:36 | 49.99042 | 8.48455 | 3281 ft | 199 kts | 199° |
| 2026-05-06 09:36 | 49.97713 | 8.47833 | 3828 ft | 201 kts | 199° |
| 2026-05-06 09:37 | 49.96372 | 8.47197 | 4367 ft | 202 kts | 199° |
| 2026-05-06 09:37 | 49.94996 | 8.46551 | 4721 ft | 215 kts | 199° |
| 2026-05-06 09:37 | 49.93494 | 8.45861 | 4903 ft | 234 kts | 198° |
| 2026-05-06 09:37 | 49.91972 | 8.44918 | 5365 ft | 238 kts | 219° |
| 2026-05-06 09:38 | 49.91015 | 8.42882 | 6032 ft | 238 kts | 254° |
| 2026-05-06 09:38 | 49.90997 | 8.40315 | 6662 ft | 244 kts | 281° |
| 2026-05-06 09:38 | 49.91633 | 8.37854 | 7295 ft | 250 kts | 300° |
| 2026-05-06 09:38 | 49.92813 | 8.35798 | 7791 ft | 267 kts | 320° |
| 2026-05-06 09:39 | 49.94511 | 8.34409 | 8169 ft | 284 kts | 335° |
| 2026-05-06 09:39 | 49.96357 | 8.33229 | 8763 ft | 289 kts | 334° |
| 2026-05-06 09:39 | 49.98224 | 8.32017 | 9383 ft | 293 kts | 334° |
| 2026-05-06 09:39 | 50.00114 | 8.30783 | 9980 ft | 298 kts | 334° |
| 2026-05-06 09:40 | 50.02161 | 8.29733 | 10133 ft | 322 kts | 344° |
| 2026-05-06 09:40 | 50.04449 | 8.29196 | 10256 ft | 344 kts | 354° |
| 2026-05-06 09:40 | 50.09451 | 8.30166 | 10507 ft | 384 kts | 17° |
| 2026-05-06 09:41 | 50.12024 | 8.31523 | 10760 ft | 395 kts | 17° |
| 2026-05-06 09:41 | 50.14646 | 8.32908 | 11218 ft | 400 kts | 17° |
| 2026-05-06 09:41 | 50.17291 | 8.34299 | 11724 ft | 403 kts | 17° |
| 2026-05-06 09:41 | 50.19958 | 8.35699 | 12247 ft | 406 kts | 17° |
| 2026-05-06 09:42 | 50.22644 | 8.37107 | 12775 ft | 409 kts | 17° |
| 2026-05-06 09:42 | 50.25352 | 8.38529 | 13308 ft | 412 kts | 18° |
| 2026-05-06 09:42 | 50.28076 | 8.39962 | 13803 ft | 414 kts | 18° |
| 2026-05-06 09:42 | 50.30815 | 8.41407 | 14275 ft | 417 kts | 18° |
| 2026-05-06 09:43 | 50.33571 | 8.42890 | 14725 ft | 420 kts | 18° |
| 2026-05-06 09:43 | 50.36339 | 8.44405 | 15147 ft | 423 kts | 18° |
| 2026-05-06 09:43 | 50.39127 | 8.45943 | 15574 ft | 426 kts | 18° |
| 2026-05-06 09:43 | 50.41933 | 8.47494 | 16007 ft | 429 kts | 18° |
| 2026-05-06 09:44 | 50.44759 | 8.49054 | 16421 ft | 432 kts | 18° |
| 2026-05-06 09:44 | 50.47603 | 8.50617 | 16840 ft | 435 kts | 18° |
| 2026-05-06 09:44 | 50.50480 | 8.52110 | 17253 ft | 437 kts | 17° |
| 2026-05-06 09:44 | 50.53399 | 8.53523 | 17665 ft | 440 kts | 15° |
| 2026-05-06 09:45 | 50.56342 | 8.54892 | 18062 ft | 442 kts | 15° |
| 2026-05-06 09:45 | 50.59307 | 8.56253 | 18397 ft | 446 kts | 15° |
| 2026-05-06 09:45 | 50.62298 | 8.57633 | 18733 ft | 449 kts | 15° |
| 2026-05-06 09:45 | 50.65302 | 8.59045 | 19082 ft | 452 kts | 15° |
| 2026-05-06 09:46 | 50.68318 | 8.60489 | 19426 ft | 454 kts | 15° |
| 2026-05-06 09:46 | 50.71349 | 8.61957 | 19793 ft | 457 kts | 15° |
| 2026-05-06 09:46 | 50.74395 | 8.63440 | 20150 ft | 459 kts | 15° |
| 2026-05-06 09:46 | 50.77436 | 8.65035 | 20501 ft | 463 kts | 21° |
| 2026-05-06 09:47 | 50.80327 | 8.67303 | 20838 ft | 466 kts | 31° |
| 2026-05-06 09:47 | 50.82975 | 8.70290 | 21174 ft | 469 kts | 40° |
| 2026-05-06 09:47 | 50.85302 | 8.73920 | 21527 ft | 471 kts | 50° |
| 2026-05-06 09:47 | 50.87319 | 8.78020 | 21869 ft | 473 kts | 54° |
| 2026-05-06 09:48 | 50.89308 | 8.82181 | 22205 ft | 475 kts | 54° |
| 2026-05-06 09:48 | 50.91312 | 8.86367 | 22545 ft | 478 kts | 54° |
| 2026-05-06 09:48 | 50.93325 | 8.90570 | 22883 ft | 480 kts | 54° |
| 2026-05-06 09:48 | 50.95350 | 8.94799 | 23206 ft | 483 kts | 54° |
| 2026-05-06 09:49 | 50.97383 | 8.99050 | 23503 ft | 485 kts | 54° |
| 2026-05-06 09:49 | 50.99422 | 9.03335 | 23809 ft | 487 kts | 54° |
| 2026-05-06 09:49 | 51.01465 | 9.07640 | 24121 ft | 489 kts | 54° |
| 2026-05-06 09:49 | 51.03511 | 9.11967 | 24413 ft | 490 kts | 54° |
| 2026-05-06 09:50 | 51.05560 | 9.16311 | 24671 ft | 492 kts | 54° |
| 2026-05-06 09:50 | 51.07729 | 9.20526 | 24894 ft | 494 kts | 46° |
| 2026-05-06 09:50 | 51.10277 | 9.24205 | 25140 ft | 496 kts | 37° |
| 2026-05-06 09:50 | 51.13153 | 9.27236 | 25363 ft | 497 kts | 28° |
| 2026-05-06 09:51 | 51.16287 | 9.29553 | 25573 ft | 497 kts | 19° |
| 2026-05-06 09:51 | 51.19604 | 9.31107 | 25780 ft | 496 kts | 10° |
| 2026-05-06 09:51 | 51.22972 | 9.32268 | 26075 ft | 494 kts | 11° |
| 2026-05-06 09:51 | 51.26316 | 9.33421 | 26521 ft | 490 kts | 11° |
| 2026-05-06 09:52 | 51.29637 | 9.34569 | 26882 ft | 487 kts | 11° |
| 2026-05-06 09:52 | 51.32945 | 9.35714 | 27207 ft | 486 kts | 11° |
| 2026-05-06 09:52 | 51.36248 | 9.36859 | 27517 ft | 485 kts | 11° |
| 2026-05-06 09:52 | 51.39540 | 9.38003 | 27837 ft | 484 kts | 11° |
| 2026-05-06 09:53 | 51.42827 | 9.39152 | 28145 ft | 483 kts | 11° |
| 2026-05-06 09:53 | 51.46101 | 9.40302 | 28532 ft | 479 kts | 12° |
| 2026-05-06 09:53 | 51.49345 | 9.41442 | 28974 ft | 475 kts | 12° |
| 2026-05-06 09:53 | 51.52568 | 9.42576 | 29344 ft | 473 kts | 12° |
| 2026-05-06 09:54 | 51.55777 | 9.43703 | 29684 ft | 472 kts | 12° |
| 2026-05-06 09:54 | 51.58978 | 9.44829 | 29973 ft | 470 kts | 12° |
| 2026-05-06 09:54 | 51.62179 | 9.45954 | 30211 ft | 470 kts | 12° |
| 2026-05-06 09:54 | 51.65375 | 9.47080 | 30425 ft | 471 kts | 12° |
| 2026-05-06 09:55 | 51.68574 | 9.48207 | 30679 ft | 470 kts | 13° |
| 2026-05-06 09:55 | 51.71760 | 9.49333 | 30970 ft | 468 kts | 13° |
| 2026-05-06 09:55 | 51.74941 | 9.50464 | 31201 ft | 469 kts | 13° |
| 2026-05-06 09:55 | 51.78121 | 9.51647 | 31396 ft | 469 kts | 16° |
| 2026-05-06 09:56 | 51.81187 | 9.53424 | 31585 ft | 469 kts | 25° |
| 2026-05-06 09:56 | 51.84053 | 9.55923 | 31768 ft | 468 kts | 34° |
| 2026-05-06 09:56 | 51.86656 | 9.59071 | 31937 ft | 468 kts | 43° |
| 2026-05-06 09:56 | 51.89025 | 9.62677 | 32111 ft | 468 kts | 45° |
| 2026-05-06 09:57 | 51.91382 | 9.66310 | 32314 ft | 468 kts | 45° |
| 2026-05-06 09:57 | 51.93740 | 9.69941 | 32517 ft | 468 kts | 45° |
| 2026-05-06 09:57 | 51.96104 | 9.73580 | 32710 ft | 469 kts | 45° |
| 2026-05-06 09:57 | 51.98467 | 9.77224 | 32930 ft | 469 kts | 45° |
| 2026-05-06 09:58 | 52.00833 | 9.80879 | 33172 ft | 470 kts | 45° |
| 2026-05-06 09:58 | 52.03197 | 9.84546 | 33355 ft | 471 kts | 45° |
| 2026-05-06 09:58 | 52.05567 | 9.88237 | 33490 ft | 473 kts | 45° |
| 2026-05-06 09:58 | 52.07938 | 9.91941 | 33648 ft | 474 kts | 45° |
| 2026-05-06 09:59 | 52.10314 | 9.95657 | 33801 ft | 474 kts | 45° |
| 2026-05-06 09:59 | 52.12693 | 9.99376 | 33999 ft | 473 kts | 45° |
| 2026-05-06 09:59 | 52.15064 | 10.03082 | 34177 ft | 473 kts | 45° |
| 2026-05-06 09:59 | 52.17434 | 10.06795 | 34334 ft | 473 kts | 45° |
| 2026-05-06 10:00 | 52.19804 | 10.10515 | 34506 ft | 473 kts | 45° |
| 2026-05-06 10:00 | 52.22176 | 10.14240 | 34656 ft | 473 kts | 45° |
| 2026-05-06 10:00 | 52.24545 | 10.17971 | 34790 ft | 474 kts | 45° |
| 2026-05-06 10:00 | 52.26921 | 10.21722 | 34817 ft | 476 kts | 45° |
| 2026-05-06 10:01 | 52.31682 | 10.29252 | 34827 ft | 476 kts | 45° |
| 2026-05-06 10:01 | 52.36430 | 10.36773 | 34808 ft | 474 kts | 46° |
| 2026-05-06 10:02 | 52.41160 | 10.44293 | 34810 ft | 474 kts | 46° |
| 2026-05-06 10:02 | 52.45876 | 10.51825 | 34797 ft | 474 kts | 46° |
| 2026-05-06 10:03 | 52.50597 | 10.59388 | 34812 ft | 475 kts | 46° |
| 2026-05-06 10:03 | 52.55322 | 10.66982 | 34836 ft | 475 kts | 46° |
| 2026-05-06 10:04 | 52.60036 | 10.74569 | 34848 ft | 473 kts | 46° |
| 2026-05-06 10:04 | 52.64728 | 10.82153 | 34849 ft | 472 kts | 46° |
| 2026-05-06 10:05 | 52.69415 | 10.89741 | 34853 ft | 472 kts | 46° |
| 2026-05-06 10:05 | 52.73297 | 10.96056 | 34849 ft | 472 kts | 46° |
| 2026-05-06 10:06 | 52.77958 | 11.03677 | 34853 ft | 471 kts | 47° |
| 2026-05-06 10:06 | 52.82613 | 11.11310 | 34850 ft | 471 kts | 47° |
| 2026-05-06 10:07 | 52.87117 | 11.19172 | 34837 ft | 470 kts | 50° |
| 2026-05-06 10:07 | 52.91456 | 11.27293 | 34847 ft | 471 kts | 50° |
| 2026-05-06 10:08 | 52.95784 | 11.35444 | 34844 ft | 471 kts | 50° |
| 2026-05-06 10:08 | 53.00161 | 11.43561 | 34846 ft | 472 kts | 50° |
| 2026-05-06 10:09 | 53.04557 | 11.51655 | 34846 ft | 471 kts | 50° |
| 2026-05-06 10:09 | 53.08937 | 11.59764 | 34846 ft | 471 kts | 50° |
| 2026-05-06 10:10 | 53.13305 | 11.67904 | 34845 ft | 471 kts | 50° |
| 2026-05-06 10:10 | 53.17654 | 11.76061 | 34848 ft | 471 kts | 50° |
| 2026-05-06 10:11 | 53.21991 | 11.84232 | 34843 ft | 470 kts | 50° |
| 2026-05-06 10:11 | 53.26320 | 11.92387 | 34860 ft | 469 kts | 50° |
| 2026-05-06 10:12 | 53.30637 | 12.00535 | 34855 ft | 467 kts | 50° |
| 2026-05-06 10:12 | 53.34931 | 12.08683 | 34861 ft | 467 kts | 50° |
| 2026-05-06 10:13 | 53.39218 | 12.16846 | 34863 ft | 466 kts | 50° |
| 2026-05-06 10:13 | 53.43494 | 12.25015 | 34860 ft | 466 kts | 50° |
| 2026-05-06 10:14 | 53.47761 | 12.33192 | 34857 ft | 466 kts | 50° |
| 2026-05-06 10:14 | 53.52026 | 12.41380 | 34862 ft | 466 kts | 50° |
| 2026-05-06 10:15 | 53.56286 | 12.49579 | 34860 ft | 465 kts | 51° |
| 2026-05-06 10:15 | 53.60533 | 12.57795 | 34855 ft | 465 kts | 51° |
| 2026-05-06 10:16 | 53.64770 | 12.66037 | 34859 ft | 465 kts | 51° |
| 2026-05-06 10:16 | 53.68999 | 12.74299 | 34867 ft | 465 kts | 51° |
| 2026-05-06 10:17 | 53.73232 | 12.82560 | 34864 ft | 465 kts | 51° |
| 2026-05-06 10:17 | 53.77458 | 12.90834 | 34867 ft | 465 kts | 51° |
| 2026-05-06 10:18 | 53.81668 | 12.99121 | 34867 ft | 464 kts | 51° |
| 2026-05-06 10:18 | 53.85873 | 13.07428 | 34876 ft | 464 kts | 51° |
| 2026-05-06 10:19 | 53.90046 | 13.15684 | 34869 ft | 464 kts | 51° |
| 2026-05-06 10:19 | 53.94236 | 13.24008 | 34867 ft | 464 kts | 52° |
| 2026-05-06 10:20 | 53.98430 | 13.32372 | 34860 ft | 466 kts | 52° |
| 2026-05-06 10:20 | 54.02625 | 13.40778 | 34845 ft | 466 kts | 52° |
| 2026-05-06 10:21 | 54.06828 | 13.49225 | 34843 ft | 468 kts | 52° |
| 2026-05-06 10:21 | 54.11038 | 13.57714 | 34850 ft | 469 kts | 52° |
| 2026-05-06 10:22 | 54.15284 | 13.66281 | 34852 ft | 470 kts | 52° |
| 2026-05-06 10:22 | 54.19492 | 13.74815 | 34861 ft | 470 kts | 52° |
| 2026-05-06 10:23 | 54.23697 | 13.83389 | 34865 ft | 471 kts | 52° |
| 2026-05-06 10:23 | 54.27878 | 13.91930 | 34868 ft | 472 kts | 52° |
| 2026-05-06 10:24 | 54.32117 | 14.00610 | 34845 ft | 473 kts | 52° |
| 2026-05-06 10:24 | 54.35999 | 14.08594 | 34852 ft | 474 kts | 52° |
| 2026-05-06 10:25 | 54.39892 | 14.16636 | 34853 ft | 475 kts | 53° |
| 2026-05-06 10:25 | 54.44084 | 14.25325 | 34863 ft | 476 kts | 52° |
| 2026-05-06 10:26 | 54.48624 | 14.33640 | 34862 ft | 479 kts | 45° |
| 2026-05-06 10:26 | 54.53499 | 14.41497 | 34875 ft | 480 kts | 45° |
| 2026-05-06 10:27 | 54.58362 | 14.49385 | 34880 ft | 481 kts | 45° |
| 2026-05-06 10:27 | 54.63257 | 14.57370 | 34894 ft | 481 kts | 45° |
| 2026-05-06 10:28 | 54.68116 | 14.65325 | 34889 ft | 481 kts | 45° |
| 2026-05-06 10:28 | 54.72979 | 14.73290 | 34899 ft | 482 kts | 45° |
| 2026-05-06 10:29 | 54.77838 | 14.81282 | 34892 ft | 482 kts | 45° |
| 2026-05-06 10:29 | 54.82611 | 14.89461 | 34899 ft | 482 kts | 49° |
| 2026-05-06 10:30 | 54.87100 | 14.98107 | 34909 ft | 482 kts | 51° |
| 2026-05-06 10:30 | 54.91476 | 15.06949 | 34909 ft | 483 kts | 51° |
| 2026-05-06 10:31 | 54.95899 | 15.15767 | 34918 ft | 484 kts | 50° |
| 2026-05-06 10:31 | 55.00382 | 15.24529 | 34918 ft | 484 kts | 50° |
| 2026-05-06 10:32 | 55.04863 | 15.33301 | 34921 ft | 484 kts | 50° |
| 2026-05-06 10:32 | 55.09325 | 15.42105 | 34922 ft | 484 kts | 50° |
| 2026-05-06 10:33 | 55.13749 | 15.50880 | 34931 ft | 484 kts | 51° |
| 2026-05-06 10:33 | 55.18184 | 15.59756 | 34911 ft | 485 kts | 51° |
| 2026-05-06 10:34 | 55.22647 | 15.68710 | 34915 ft | 485 kts | 50° |
| 2026-05-06 10:34 | 55.27059 | 15.77552 | 34919 ft | 485 kts | 50° |
| 2026-05-06 10:35 | 55.31494 | 15.86488 | 34952 ft | 485 kts | 51° |
| 2026-05-06 10:35 | 55.35917 | 15.95443 | 34944 ft | 485 kts | 51° |
| 2026-05-06 10:36 | 55.40330 | 16.04409 | 34947 ft | 485 kts | 51° |
| 2026-05-06 10:36 | 55.44742 | 16.13393 | 34945 ft | 485 kts | 51° |
| 2026-05-06 10:37 | 55.49144 | 16.22390 | 34948 ft | 485 kts | 51° |
| 2026-05-06 10:37 | 55.53535 | 16.31424 | 34946 ft | 485 kts | 51° |
| 2026-05-06 10:38 | 55.57937 | 16.40491 | 34949 ft | 486 kts | 51° |
| 2026-05-06 10:38 | 55.62330 | 16.49583 | 34957 ft | 486 kts | 51° |
| 2026-05-06 10:39 | 55.66720 | 16.58700 | 34958 ft | 487 kts | 52° |
| 2026-05-06 10:39 | 55.71109 | 16.67840 | 34976 ft | 487 kts | 51° |
| 2026-05-06 10:40 | 55.75495 | 16.77013 | 34962 ft | 488 kts | 51° |
| 2026-05-06 10:40 | 55.79882 | 16.86232 | 34966 ft | 489 kts | 52° |
| 2026-05-06 10:41 | 55.84271 | 16.95487 | 34968 ft | 490 kts | 52° |
| 2026-05-06 10:41 | 55.88657 | 17.04768 | 34977 ft | 490 kts | 52° |
| 2026-05-06 10:42 | 55.93036 | 17.14071 | 34985 ft | 490 kts | 51° |
| 2026-05-06 10:42 | 55.97414 | 17.23425 | 34952 ft | 491 kts | 52° |
| 2026-05-06 10:43 | 56.01789 | 17.32816 | 34964 ft | 492 kts | 52° |
| 2026-05-06 10:44 | 56.08365 | 17.46957 | 34982 ft | 493 kts | 52° |
| 2026-05-06 10:44 | 56.12749 | 17.56422 | 35009 ft | 494 kts | 52° |
| 2026-05-06 10:45 | 56.17131 | 17.65916 | 34998 ft | 494 kts | 52° |
| 2026-05-06 10:45 | 56.21499 | 17.75454 | 34997 ft | 495 kts | 52° |
| 2026-05-06 10:46 | 56.25862 | 17.85030 | 35004 ft | 495 kts | 52° |
| 2026-05-06 10:46 | 56.30229 | 17.94615 | 35006 ft | 495 kts | 52° |
| 2026-05-06 10:47 | 56.33888 | 18.02664 | 35022 ft | 495 kts | 52° |
| 2026-05-06 10:47 | 56.38213 | 18.12240 | 34982 ft | 496 kts | 52° |
| 2026-05-06 10:48 | 56.42563 | 18.21931 | 34989 ft | 497 kts | 52° |
| 2026-05-06 10:48 | 56.46921 | 18.31658 | 35002 ft | 498 kts | 52° |
| 2026-05-06 10:49 | 56.51278 | 18.41396 | 35010 ft | 498 kts | 52° |
| 2026-05-06 10:49 | 56.55625 | 18.51169 | 35027 ft | 498 kts | 52° |
| 2026-05-06 10:50 | 56.59977 | 18.60986 | 35004 ft | 500 kts | 52° |
| 2026-05-06 10:50 | 56.64329 | 18.70873 | 35003 ft | 502 kts | 52° |
| 2026-05-06 10:51 | 56.68689 | 18.80814 | 35005 ft | 503 kts | 52° |
| 2026-05-06 10:51 | 56.73042 | 18.90773 | 35014 ft | 503 kts | 52° |
| 2026-05-06 10:52 | 56.77398 | 19.00760 | 35000 ft | 504 kts | 52° |
| 2026-05-06 10:52 | 56.81758 | 19.10803 | 34999 ft | 506 kts | 52° |
| 2026-05-06 10:53 | 56.86117 | 19.20906 | 35004 ft | 507 kts | 52° |
| 2026-05-06 10:53 | 56.90477 | 19.31050 | 35014 ft | 508 kts | 52° |
| 2026-05-06 10:54 | 56.94831 | 19.41227 | 35019 ft | 508 kts | 52° |
| 2026-05-06 10:54 | 56.99186 | 19.51435 | 35042 ft | 509 kts | 52° |
| 2026-05-06 10:55 | 57.03540 | 19.61671 | 35034 ft | 509 kts | 52° |
| 2026-05-06 10:55 | 57.07897 | 19.71963 | 35030 ft | 510 kts | 52° |
| 2026-05-06 10:56 | 57.12239 | 19.82279 | 35026 ft | 510 kts | 52° |
| 2026-05-06 10:56 | 57.16573 | 19.92624 | 35026 ft | 510 kts | 52° |
| 2026-05-06 10:57 | 57.20986 | 20.02870 | 35011 ft | 511 kts | 50° |
| 2026-05-06 10:57 | 57.25520 | 20.12968 | 35018 ft | 511 kts | 50° |
| 2026-05-06 10:58 | 57.30057 | 20.23109 | 35024 ft | 512 kts | 50° |
| 2026-05-06 10:58 | 57.34540 | 20.33344 | 35027 ft | 512 kts | 51° |
| 2026-05-06 10:59 | 57.39000 | 20.43637 | 35057 ft | 512 kts | 50° |
| 2026-05-06 10:59 | 57.43455 | 20.53944 | 35042 ft | 512 kts | 50° |
| 2026-05-06 11:00 | 57.47915 | 20.64268 | 35044 ft | 512 kts | 50° |
| 2026-05-06 11:00 | 57.52373 | 20.74616 | 35042 ft | 512 kts | 50° |
| 2026-05-06 11:01 | 57.56814 | 20.84994 | 35048 ft | 513 kts | 51° |
| 2026-05-06 11:01 | 57.61246 | 20.95408 | 35015 ft | 513 kts | 50° |
| 2026-05-06 11:02 | 57.65676 | 21.05847 | 35023 ft | 513 kts | 50° |
| 2026-05-06 11:02 | 57.70100 | 21.16317 | 35029 ft | 514 kts | 50° |
| 2026-05-06 11:03 | 57.74530 | 21.26827 | 35032 ft | 514 kts | 50° |
| 2026-05-06 11:03 | 57.78947 | 21.37362 | 35079 ft | 515 kts | 50° |
| 2026-05-06 11:04 | 57.83363 | 21.47954 | 35050 ft | 516 kts | 51° |
| 2026-05-06 11:04 | 57.87750 | 21.58531 | 35055 ft | 517 kts | 51° |
| 2026-05-06 11:05 | 57.92167 | 21.69230 | 35066 ft | 518 kts | 51° |
| 2026-05-06 11:05 | 57.96585 | 21.79965 | 35059 ft | 518 kts | 51° |
| 2026-05-06 11:06 | 58.00997 | 21.90717 | 35065 ft | 520 kts | 51° |
| 2026-05-06 11:06 | 58.05416 | 22.01527 | 35022 ft | 520 kts | 51° |
| 2026-05-06 11:07 | 58.09812 | 22.12381 | 35048 ft | 520 kts | 51° |
| 2026-05-06 11:07 | 58.14438 | 22.22883 | 35053 ft | 519 kts | 46° |
| 2026-05-06 11:08 | 58.19280 | 22.33028 | 35051 ft | 519 kts | 46° |
| 2026-05-06 11:08 | 58.24098 | 22.43251 | 35069 ft | 521 kts | 46° |
| 2026-05-06 11:09 | 58.28843 | 22.53668 | 35030 ft | 522 kts | 47° |
| 2026-05-06 11:09 | 58.33568 | 22.64177 | 35028 ft | 523 kts | 47° |
| 2026-05-06 11:10 | 58.38301 | 22.74708 | 35042 ft | 523 kts | 47° |
| 2026-05-06 11:10 | 58.43046 | 22.85257 | 35074 ft | 525 kts | 46° |
| 2026-05-06 11:10 | 58.45426 | 22.90561 | 34836 ft | 527 kts | 46° |
| 2026-05-06 11:11 | 58.47814 | 22.95891 | 34463 ft | 528 kts | 46° |
| 2026-05-06 11:11 | 58.50220 | 23.01278 | 33341 ft | 537 kts | 47° |
| 2026-05-06 11:11 | 58.52643 | 23.06722 | 32455 ft | 538 kts | 47° |
| 2026-05-06 11:11 | 58.55073 | 23.12212 | 31383 ft | 542 kts | 47° |
| 2026-05-06 11:12 | 58.57508 | 23.17733 | 30500 ft | 542 kts | 47° |
| 2026-05-06 11:12 | 58.59958 | 23.23245 | 29476 ft | 544 kts | 47° |
| 2026-05-06 11:12 | 58.62429 | 23.28728 | 28480 ft | 543 kts | 46° |
| 2026-05-06 11:12 | 58.64914 | 23.34195 | 27473 ft | 543 kts | 46° |
| 2026-05-06 11:13 | 58.67403 | 23.39667 | 26392 ft | 544 kts | 46° |
| 2026-05-06 11:13 | 58.69892 | 23.45167 | 25225 ft | 546 kts | 46° |
| 2026-05-06 11:13 | 58.72377 | 23.50699 | 24158 ft | 546 kts | 46° |
| 2026-05-06 11:13 | 58.74850 | 23.56231 | 23113 ft | 543 kts | 46° |
| 2026-05-06 11:14 | 58.77281 | 23.61703 | 22343 ft | 533 kts | 46° |
| 2026-05-06 11:14 | 58.79674 | 23.67106 | 21489 ft | 524 kts | 46° |
| 2026-05-06 11:14 | 58.82010 | 23.72392 | 20608 ft | 512 kts | 46° |
| 2026-05-06 11:14 | 58.84295 | 23.77565 | 19862 ft | 502 kts | 46° |
| 2026-05-06 11:15 | 58.86549 | 23.82661 | 19030 ft | 497 kts | 46° |
| 2026-05-06 11:15 | 58.88783 | 23.87721 | 18252 ft | 491 kts | 46° |
| 2026-05-06 11:15 | 58.90983 | 23.92727 | 17421 ft | 484 kts | 46° |
| 2026-05-06 11:15 | 58.93138 | 23.97654 | 16658 ft | 476 kts | 46° |
| 2026-05-06 11:16 | 58.95256 | 24.02516 | 15912 ft | 468 kts | 47° |
| 2026-05-06 11:16 | 58.97272 | 24.07402 | 15168 ft | 462 kts | 52° |
| 2026-05-06 11:16 | 58.98976 | 24.12639 | 14450 ft | 456 kts | 57° |
| 2026-05-06 11:16 | 59.00607 | 24.17857 | 13767 ft | 449 kts | 57° |
| 2026-05-06 11:17 | 59.02206 | 24.23007 | 13060 ft | 441 kts | 57° |
| 2026-05-06 11:17 | 59.03767 | 24.28057 | 12413 ft | 432 kts | 57° |
| 2026-05-06 11:17 | 59.05296 | 24.33007 | 11818 ft | 423 kts | 57° |
| 2026-05-06 11:17 | 59.06792 | 24.37851 | 11346 ft | 411 kts | 57° |
| 2026-05-06 11:18 | 59.08221 | 24.42496 | 11210 ft | 390 kts | 57° |
| 2026-05-06 11:18 | 59.09574 | 24.46907 | 11076 ft | 371 kts | 57° |
| 2026-05-06 11:18 | 59.10863 | 24.51119 | 10949 ft | 353 kts | 57° |
| 2026-05-06 11:18 | 59.12091 | 24.55134 | 10826 ft | 338 kts | 56° |
| 2026-05-06 11:19 | 59.13268 | 24.58983 | 10700 ft | 324 kts | 56° |
| 2026-05-06 11:19 | 59.14400 | 24.62684 | 10491 ft | 314 kts | 56° |
| 2026-05-06 11:19 | 59.15506 | 24.66297 | 10185 ft | 307 kts | 56° |
| 2026-05-06 11:19 | 59.16592 | 24.69854 | 9936 ft | 304 kts | 56° |
| 2026-05-06 11:20 | 59.17667 | 24.73381 | 9554 ft | 301 kts | 57° |
| 2026-05-06 11:20 | 59.18731 | 24.76875 | 9170 ft | 298 kts | 57° |
| 2026-05-06 11:20 | 59.19782 | 24.80337 | 8795 ft | 295 kts | 57° |
| 2026-05-06 11:20 | 59.20820 | 24.83763 | 8421 ft | 292 kts | 57° |
| 2026-05-06 11:21 | 59.21843 | 24.87146 | 8083 ft | 285 kts | 57° |
| 2026-05-06 11:21 | 59.22836 | 24.90438 | 7769 ft | 277 kts | 58° |
| 2026-05-06 11:21 | 59.23798 | 24.93645 | 7453 ft | 270 kts | 58° |
| 2026-05-06 11:21 | 59.24735 | 24.96771 | 7158 ft | 263 kts | 58° |
| 2026-05-06 11:22 | 59.25652 | 24.99826 | 6850 ft | 258 kts | 58° |
| 2026-05-06 11:22 | 59.26544 | 25.02798 | 6572 ft | 250 kts | 58° |
| 2026-05-06 11:22 | 59.27414 | 25.05701 | 6261 ft | 244 kts | 59° |
| 2026-05-06 11:22 | 59.28268 | 25.08555 | 5935 ft | 241 kts | 58° |
| 2026-05-06 11:23 | 59.29116 | 25.11387 | 5611 ft | 240 kts | 58° |
| 2026-05-06 11:23 | 59.29948 | 25.14164 | 5297 ft | 234 kts | 58° |
| 2026-05-06 11:23 | 59.30761 | 25.16884 | 4982 ft | 229 kts | 58° |
| 2026-05-06 11:23 | 59.31568 | 25.19528 | 4700 ft | 222 kts | 53° |
| 2026-05-06 11:24 | 59.32592 | 25.21684 | 4448 ft | 210 kts | 36° |
| 2026-05-06 11:24 | 59.33807 | 25.23086 | 4179 ft | 198 kts | 21° |
| 2026-05-06 11:24 | 59.35090 | 25.23753 | 3945 ft | 186 kts | 6° |
| 2026-05-06 11:24 | 59.36364 | 25.23847 | 3681 ft | 182 kts | 359° |
| 2026-05-06 11:25 | 59.37622 | 25.23876 | 3415 ft | 180 kts | 359° |
| 2026-05-06 11:25 | 59.38856 | 25.23909 | 3162 ft | 180 kts | 359° |
| 2026-05-06 11:25 | 59.40068 | 25.23385 | 3016 ft | 177 kts | 330° |
| 2026-05-06 11:25 | 59.40918 | 25.21664 | 3006 ft | 180 kts | 298° |
| 2026-05-06 11:26 | 59.41174 | 25.19268 | 3008 ft | 182 kts | 272° |
| 2026-05-06 11:26 | 59.41184 | 25.16776 | 3010 ft | 182 kts | 273° |
| 2026-05-06 11:26 | 59.41195 | 25.14301 | 2927 ft | 181 kts | 272° |
| 2026-05-06 11:26 | 59.41207 | 25.11835 | 2727 ft | 179 kts | 272° |
| 2026-05-06 11:27 | 59.41219 | 25.09377 | 2496 ft | 180 kts | 272° |
| 2026-05-06 11:27 | 59.41232 | 25.06919 | 2252 ft | 180 kts | 272° |
| 2026-05-06 11:27 | 59.41243 | 25.04481 | 2002 ft | 178 kts | 274° |
| 2026-05-06 11:27 | 59.41253 | 25.02143 | 1762 ft | 161 kts | 274° |
| 2026-05-06 11:28 | 59.41259 | 25.00738 | 1618 ft | 151 kts | 274° |
| 2026-05-06 11:28 | 59.41271 | 24.98076 | 1350 ft | 145 kts | 272° |
| 2026-05-06 11:28 | 59.41277 | 24.96753 | 1210 ft | 143 kts | 273° |
| 2026-05-06 11:28 | 59.41283 | 24.94177 | 950 ft | 141 kts | 273° |
| 2026-05-06 11:29 | 59.41280 | 24.92264 | 797 ft | 140 kts | 275° |
| 2026-05-06 11:29 | 59.41296 | 24.90369 | 593 ft | 138 kts | 276° |
| 2026-05-06 11:29 | 59.41316 | 24.88488 | 394 ft | 138 kts | 273° |
| 2026-05-06 11:29 | 59.41309 | 24.86620 | 206 ft | 136 kts | 275° |
| 2026-05-06 11:30 | 59.41324 | 24.85413 | 164 ft | 121 kts | 271° |
| 2026-05-06 11:30 | 59.41328 | 24.84020 | 161 ft | 82 kts | 270° |
| 2026-05-06 11:30 | 59.41326 | 24.83293 | 164 ft | 38 kts | 270° |
| 2026-05-06 11:30 | 59.41340 | 24.82839 | 161 ft | 25 kts | 283° |
| 2026-05-06 11:31 | 59.41393 | 24.82566 | 161 ft | 21 kts | 296° |
| 2026-05-06 11:31 | 59.41467 | 24.82315 | 162 ft | 21 kts | 300° |
| 2026-05-06 11:31 | 59.41502 | 24.82031 | 162 ft | 22 kts | 271° |
| 2026-05-06 11:31 | 59.41504 | 24.81720 | 162 ft | 23 kts | 270° |
| 2026-05-06 11:32 | 59.41504 | 24.81396 | 162 ft | 24 kts | 270° |
| 2026-05-06 11:32 | 59.41506 | 24.81059 | 162 ft | 25 kts | 270° |
| 2026-05-06 11:32 | 59.41506 | 24.80743 | 162 ft | 17 kts | 270° |
| 2026-05-06 11:32 | 59.41514 | 24.80509 | 162 ft | 18 kts | 280° |
| 2026-05-06 11:33 | 59.41527 | 24.80289 | 162 ft | 13 kts | 270° |
| 2026-05-06 11:33 | 59.41550 | 24.80212 | 162 ft | 7 kts | 341° |
| 2026-05-06 11:33 | 59.41579 | 24.80207 | 162 ft | 1 kts | 358° |
| 2026-05-06 11:33 | 59.41582 | 24.80207 | 162 ft | 0 kts | 359° |